SPVAN EPWA-EPMO
Flight info
| Callsign | SPVAN |
|---|---|
| Flight time | N/A |
| Altitude | 6000 |
| Route | LOLSI KUXEN |
| Aircraft | C208/L-BDFGLORSY/S |
Departure
| Time | N/A |
|---|---|
| Airport | Warsaw Chopin Airport (EPWA) |
Arrival
| Time | 2026-05-04 11:33 |
|---|---|
| Airport | Warsaw Modlin Airport (EPMO) |
| Time | Latitude | Longitude | Altitude | Speed | Heading |
|---|---|---|---|---|---|
| 2026-05-04 11:25 | 52.36342 | 20.40724 | 3037 ft | 117 kts | 342° |
| 2026-05-04 11:25 | 52.37104 | 20.40352 | 2987 ft | 149 kts | 343° |
| 2026-05-04 11:25 | 52.37997 | 20.39947 | 3074 ft | 156 kts | 345° |
| 2026-05-04 11:26 | 52.39690 | 20.38764 | 3173 ft | 164 kts | 329° |
| 2026-05-04 11:27 | 52.42553 | 20.43204 | 2870 ft | 147 kts | 68° |
| 2026-05-04 11:28 | 52.42808 | 20.44486 | 2816 ft | 126 kts | 86° |
| 2026-05-04 11:28 | 52.42868 | 20.45748 | 2511 ft | 128 kts | 85° |
| 2026-05-04 11:28 | 52.43041 | 20.46921 | 2393 ft | 116 kts | 71° |
| 2026-05-04 11:28 | 52.43243 | 20.47981 | 2272 ft | 107 kts | 76° |
| 2026-05-04 11:29 | 52.43412 | 20.49009 | 2066 ft | 113 kts | 75° |
| 2026-05-04 11:29 | 52.43594 | 20.50128 | 1981 ft | 112 kts | 75° |
| 2026-05-04 11:29 | 52.43758 | 20.51221 | 1882 ft | 112 kts | 78° |
| 2026-05-04 11:29 | 52.43900 | 20.52259 | 1827 ft | 99 kts | 79° |
| 2026-05-04 11:31 | 52.44574 | 20.59043 | 945 ft | 96 kts | 86° |
| 2026-05-04 11:33 | 52.44980 | 20.64404 | 332 ft | 34 kts | 163° |
| 2026-05-04 11:33 | 52.44859 | 20.64508 | 333 ft | 16 kts | 117° |
| 2026-05-04 11:33 | 52.44839 | 20.64639 | 334 ft | 10 kts | 86° |
| 2026-05-04 11:34 | 52.44851 | 20.64717 | 334 ft | 5 kts | 64° |
| 2026-05-04 11:34 | 52.44865 | 20.64754 | 333 ft | 3 kts | 49° |
| 2026-05-04 11:34 | 52.44874 | 20.64768 | 333 ft | 1 kts | 39° |
| 2026-05-04 11:34 | 52.44876 | 20.64770 | 333 ft | 0 kts | 36° |